Time;durP1;ratioP1;P1;durP2;ratioP2;P2;SDS_P1;SDS_P2;PMS_P1;PMS_P2;Temp;Humidity;BMP_temperature;BMP_pressure;BME280_temperature;BME280_humidity;BME280_pressure;Samples;Min_cycle;Max_cycle;Signal;HPM_P1;HPM_P2
2022/07/01 00:01:05;;;;;;;11.70;8.30;;;;;;;23.59;60.09;100250.02;84795;1326;24262;-70
2022/07/01 00:03:12;;;;;;;10.20;9.20;;;;;;;23.61;60.10;100248.77;84760;1330;22593;-70
2022/07/01 00:05:20;;;;;;;9.90;8.60;;;;;;;23.63;59.96;100248.23;84785;1328;22778;-70
2022/07/01 00:07:27;;;;;;;12.70;8.70;;;;;;;23.64;59.98;100249.02;84788;1327;22590;-70
2022/07/01 00:09:35;;;;;;;10.50;7.80;;;;;;;23.65;59.93;100249.33;84779;1325;22729;-70
2022/07/01 00:11:43;;;;;;;12.40;8.70;;;;;;;23.65;59.85;100246.99;84774;1327;25320;-70
2022/07/01 00:13:52;;;;;;;8.80;8.10;;;;;;;23.65;60.12;100247.33;84792;1327;22680;-70
2022/07/01 00:16:00;;;;;;;11.20;8.10;;;;;;;23.67;60.11;100250.55;84807;1327;23933;-70
2022/07/01 00:18:07;;;;;;;10.20;9.10;;;;;;;23.68;60.21;100256.64;84798;1327;25383;-70
2022/07/01 00:20:15;;;;;;;10.40;9.30;;;;;;;23.70;60.36;100256.17;84798;1328;22593;-70
2022/07/01 00:22:23;;;;;;;10.10;8.80;;;;;;;23.73;60.24;100256.80;84757;1329;22781;-70
2022/07/01 00:24:30;;;;;;;9.90;8.80;;;;;;;23.75;60.22;100256.94;84780;1327;23955;-70
2022/07/01 00:26:38;;;;;;;9.60;8.00;;;;;;;23.75;60.12;100258.30;84780;1327;23927;-70
2022/07/01 00:28:45;;;;;;;9.50;8.50;;;;;;;23.74;60.20;100256.27;84768;1326;22558;-70
2022/07/01 00:30:53;;;;;;;10.50;9.50;;;;;;;23.73;60.14;100257.81;84790;1326;22713;-70
2022/07/01 00:33:00;;;;;;;9.90;8.80;;;;;;;23.70;60.13;100258.61;84796;1326;25432;-70
2022/07/01 00:35:10;;;;;;;10.50;9.40;;;;;;;23.69;60.13;100258.89;84781;1326;22888;-71
2022/07/01 00:37:17;;;;;;;10.40;8.40;;;;;;;23.68;60.33;100261.29;84810;1326;23976;-70
2022/07/01 00:39:25;;;;;;;9.20;8.40;;;;;;;23.67;60.41;100258.02;84788;1326;22591;-70
2022/07/01 00:41:32;;;;;;;13.50;10.00;;;;;;;23.66;60.44;100260.83;84795;1327;25433;-70
2022/07/01 00:43:40;;;;;;;11.10;9.30;;;;;;;23.63;60.61;100258.02;84817;1326;22612;-70
2022/07/01 00:45:48;;;;;;;10.90;9.70;;;;;;;23.61;60.78;100265.10;84806;1326;25432;-70
2022/07/01 00:47:56;;;;;;;10.00;9.00;;;;;;;23.60;60.79;100261.17;84810;1326;23994;-70
2022/07/01 00:50:04;;;;;;;11.20;9.40;;;;;;;23.59;60.78;100267.45;84789;1321;22670;-70
2022/07/01 00:52:12;;;;;;;10.20;9.10;;;;;;;23.62;61.12;100268.79;84794;1329;22584;-70
2022/07/01 00:54:20;;;;;;;10.50;9.50;;;;;;;23.64;61.12;100268.05;84788;1326;22610;-70
2022/07/01 00:56:27;;;;;;;10.90;9.80;;;;;;;23.66;61.05;100271.67;84829;1327;22889;-70
2022/07/01 00:58:35;;;;;;;11.10;9.60;;;;;;;23.67;61.10;100272.45;84782;1327;22536;-70
2022/07/01 01:00:42;;;;;;;10.30;9.40;;;;;;;23.67;60.99;100278.30;84781;1327;22707;-70
2022/07/01 01:02:49;;;;;;;14.40;9.90;;;;;;;23.66;61.08;100283.37;84789;1329;22678;-70
2022/07/01 01:04:57;;;;;;;10.00;9.00;;;;;;;23.65;61.02;100295.10;84794;1327;22537;-70
2022/07/01 01:07:05;;;;;;;10.80;9.60;;;;;;;23.62;61.30;100312.23;84799;1327;22613;-70
2022/07/01 01:09:13;;;;;;;12.20;10.00;;;;;;;23.60;61.52;100327.08;84813;1327;22579;-70
2022/07/01 01:11:20;;;;;;;9.70;8.70;;;;;;;23.55;61.58;100329.11;84815;1325;22622;-70
2022/07/01 01:13:28;;;;;;;10.20;8.10;;;;;;;23.49;61.27;100326.64;84781;1327;23959;-70
2022/07/01 01:15:36;;;;;;;9.60;8.50;;;;;;;23.41;61.18;100325.91;84832;1326;22838;-70
2022/07/01 01:17:46;;;;;;;11.50;7.70;;;;;;;23.32;61.29;100337.83;84803;1328;22590;-71
2022/07/01 01:19:55;;;;;;;9.60;7.70;;;;;;;23.23;61.25;100343.49;84816;1326;25459;-71
2022/07/01 01:22:03;;;;;;;12.90;8.30;;;;;;;23.15;61.38;100349.10;84798;1322;22620;-71
2022/07/01 01:24:11;;;;;;;7.80;6.90;;;;;;;23.07;61.41;100357.89;84806;1327;22590;-71
2022/07/01 01:26:23;;;;;;;10.40;7.90;;;;;;;23.00;61.13;100350.04;84796;1326;22824;-71
2022/07/01 01:28:31;;;;;;;10.20;7.40;;;;;;;22.90;61.04;100369.56;84803;1326;23926;-71
2022/07/01 01:30:38;;;;;;;7.40;6.70;;;;;;;22.80;61.07;100376.18;84804;1322;22566;-71
2022/07/01 01:32:46;;;;;;;8.40;6.20;;;;;;;22.70;61.18;100372.25;84801;1318;22678;-71
2022/07/01 01:34:53;;;;;;;8.00;7.20;;;;;;;22.60;61.41;100375.06;84794;1323;23985;-71
2022/07/01 01:37:01;;;;;;;8.40;7.20;;;;;;;22.54;61.59;100370.30;84795;1326;22592;-71
2022/07/01 01:39:10;;;;;;;8.00;7.20;;;;;;;22.43;61.72;100361.42;84779;1328;22611;-71
2022/07/01 01:41:18;;;;;;;8.90;7.40;;;;;;;22.36;61.99;100366.69;84822;1326;22723;-71
2022/07/01 01:43:25;;;;;;;8.20;7.00;;;;;;;22.30;62.16;100374.86;84774;1327;23984;-71
2022/07/01 01:45:33;;;;;;;8.30;7.40;;;;;;;22.21;62.22;100376.35;84795;1328;22610;-71
2022/07/01 01:47:40;;;;;;;9.30;7.40;;;;;;;22.13;62.53;100371.03;84791;1328;22588;-71
2022/07/01 01:49:48;;;;;;;11.20;7.40;;;;;;;22.03;62.81;100373.27;84781;1322;22598;-71
2022/07/01 01:51:55;;;;;;;12.90;7.60;;;;;;;21.96;62.94;100376.53;84796;1327;23955;-70
2022/07/01 01:54:06;;;;;;;10.40;7.40;;;;;;;21.90;63.17;100383.25;84784;1322;22589;-70
2022/07/01 01:56:13;;;;;;;8.70;7.00;;;;;;;21.84;63.46;100385.14;84786;1328;22989;-70
2022/07/01 01:58:21;;;;;;;10.40;7.90;;;;;;;21.79;63.57;100383.67;84801;1322;22624;-71
2022/07/01 02:00:29;;;;;;;10.10;7.60;;;;;;;21.71;63.85;100372.30;84811;1326;22807;-70
2022/07/01 02:02:37;;;;;;;12.70;8.30;;;;;;;21.68;64.06;100369.67;84784;1327;22603;-70
2022/07/01 02:04:44;;;;;;;9.30;7.70;;;;;;;21.67;64.24;100374.77;84778;1327;22565;-70
2022/07/01 02:06:51;;;;;;;11.40;7.70;;;;;;;21.64;64.11;100390.08;84768;1328;22574;-70
2022/07/01 02:08:59;;;;;;;11.20;7.50;;;;;;;21.62;64.12;100400.02;84812;1323;25441;-70
2022/07/01 02:11:07;;;;;;;13.20;8.30;;;;;;;21.58;64.32;100393.79;84792;1326;23937;-70
2022/07/01 02:13:14;;;;;;;9.40;7.00;;;;;;;21.52;64.47;100388.39;84786;1326;22539;-70
2022/07/01 02:15:21;;;;;;;9.90;7.30;;;;;;;21.45;64.72;100376.56;84799;1325;22578;-70
2022/07/01 02:17:29;;;;;;;16.60;7.40;;;;;;;21.38;64.96;100366.00;84785;1326;24224;-70
2022/07/01 02:19:36;;;;;;;10.90;7.60;;;;;;;21.34;65.16;100362.55;84781;1327;22627;-70
2022/07/01 02:21:44;;;;;;;18.30;7.80;;;;;;;21.32;65.22;100365.92;84773;1327;22627;-70
2022/07/01 02:23:52;;;;;;;13.20;7.20;;;;;;;21.32;65.31;100378.39;84784;1326;25426;-70
2022/07/01 02:26:01;;;;;;;14.80;7.10;;;;;;;21.30;65.40;100392.15;84763;1325;22591;-70
2022/07/01 02:28:08;;;;;;;17.30;8.30;;;;;;;21.29;65.56;100392.10;84779;1328;24210;-70
2022/07/01 02:30:17;;;;;;;11.30;8.00;;;;;;;21.27;65.72;100387.61;84792;1329;22648;-70
2022/07/01 02:32:24;;;;;;;11.90;7.90;;;;;;;21.25;65.88;100374.31;84809;1326;22584;-70
2022/07/01 02:34:32;;;;;;;12.10;7.30;;;;;;;21.20;65.94;100368.72;84784;1329;24019;-70
2022/07/01 02:36:39;;;;;;;9.70;6.90;;;;;;;21.16;66.14;100368.88;84797;1326;22593;-70
2022/07/01 02:38:48;;;;;;;12.20;7.10;;;;;;;21.13;66.27;100373.88;84795;1328;22609;-70
2022/07/01 02:40:56;;;;;;;8.80;6.40;;;;;;;21.10;66.36;100382.80;84813;1327;22584;-70
2022/07/01 02:43:03;;;;;;;8.00;6.70;;;;;;;21.07;66.55;100386.59;84773;1327;22786;-70
2022/07/01 02:45:11;;;;;;;10.80;7.20;;;;;;;21.04;66.83;100381.17;84804;1327;22601;-70
2022/07/01 02:47:18;;;;;;;9.20;7.40;;;;;;;21.03;67.15;100375.40;84785;1327;23824;-70
2022/07/01 02:49:26;;;;;;;8.30;6.90;;;;;;;21.01;67.19;100370.42;84781;1326;24266;-71
2022/07/01 02:51:33;;;;;;;13.00;7.50;;;;;;;21.03;67.48;100370.62;84781;1326;22694;-71
2022/07/01 02:53:41;;;;;;;11.20;7.20;;;;;;;21.05;67.45;100379.85;84808;1326;22865;-71
2022/07/01 02:55:49;;;;;;;10.40;7.00;;;;;;;21.07;67.33;100387.14;84787;1328;22591;-69
2022/07/01 02:57:57;;;;;;;9.00;7.60;;;;;;;21.10;67.34;100396.81;84775;1327;22524;-70
2022/07/01 03:00:06;;;;;;;12.50;6.90;;;;;;;21.14;67.41;100400.97;84780;1326;23860;-70
2022/07/01 03:02:13;;;;;;;13.50;7.50;;;;;;;21.16;67.55;100401.46;84785;1323;22641;-70
2022/07/01 03:04:21;;;;;;;8.90;6.60;;;;;;;21.18;67.70;100397.80;84798;1326;22552;-70
2022/07/01 03:06:29;;;;;;;9.10;7.10;;;;;;;21.19;67.76;100391.11;84775;1327;22561;-70
2022/07/01 03:08:36;;;;;;;12.00;6.80;;;;;;;21.22;67.94;100391.98;84786;1327;24351;-70
2022/07/01 03:10:44;;;;;;;13.00;8.00;;;;;;;21.25;67.96;100394.71;84813;1326;22584;-70
2022/07/01 03:12:51;;;;;;;16.10;8.70;;;;;;;21.28;67.97;100396.41;84795;1326;25445;-70
2022/07/01 03:15:00;;;;;;;19.10;9.40;;;;;;;21.33;68.00;100395.14;84769;1327;25478;-70
2022/07/01 03:17:08;;;;;;;14.50;8.10;;;;;;;21.39;67.98;100395.91;84794;1327;24280;-70
2022/07/01 03:19:15;;;;;;;23.20;8.60;;;;;;;21.44;68.12;100398.30;84776;1326;22549;-70
2022/07/01 03:21:23;;;;;;;12.70;7.80;;;;;;;21.47;68.30;100396.48;84785;1326;22892;-71
2022/07/01 03:23:30;;;;;;;9.00;8.10;;;;;;;21.49;68.30;100393.98;84800;1326;22535;-71
2022/07/01 03:25:38;;;;;;;13.40;7.90;;;;;;;21.53;68.40;100389.91;84799;1327;23984;-71
2022/07/01 03:27:47;;;;;;;15.30;8.40;;;;;;;21.61;68.35;100379.35;84805;1319;22730;-71
2022/07/01 03:29:56;;;;;;;13.00;8.30;;;;;;;21.70;68.26;100372.69;84791;1327;22777;-71
2022/07/01 03:32:03;;;;;;;16.30;8.20;;;;;;;21.82;68.22;100372.59;84813;1328;22554;-71
2022/07/01 03:34:11;;;;;;;11.50;8.40;;;;;;;21.99;67.97;100377.52;84775;1327;25391;-69
2022/07/01 03:36:18;;;;;;;16.10;8.80;;;;;;;22.25;68.03;100376.73;84852;1326;22565;-70
2022/07/01 03:38:26;;;;;;;9.80;8.20;;;;;;;22.60;67.75;100382.55;84782;1327;24366;-70
2022/07/01 03:40:33;;;;;;;13.60;9.60;;;;;;;22.98;67.45;100381.84;84770;1322;22725;-70
2022/07/01 03:42:41;;;;;;;11.50;9.40;;;;;;;23.44;66.73;100376.03;84868;1327;22575;-70
2022/07/01 03:44:48;;;;;;;12.00;9.30;;;;;;;23.90;65.83;100377.19;84845;1327;22651;-70
2022/07/01 03:46:56;;;;;;;13.20;9.30;;;;;;;24.34;64.78;100368.02;84787;1327;25260;-70
2022/07/01 03:49:03;;;;;;;10.30;8.90;;;;;;;24.79;64.33;100367.95;84775;1328;23988;-70
2022/07/01 03:51:11;;;;;;;11.80;9.80;;;;;;;25.27;62.96;100359.94;84792;1327;22588;-70
2022/07/01 03:55:44;;;;;;;12.80;8.40;;;;;;;26.15;60.22;100359.05;84775;1327;22597;-70
2022/07/01 03:57:51;;;;;;;10.70;9.40;;;;;;;26.47;59.21;100360.77;84793;1325;24392;-70
2022/07/01 03:59:59;;;;;;;12.20;9.40;;;;;;;26.83;58.62;100361.73;84791;1325;22593;-70
2022/07/01 04:02:08;;;;;;;14.90;9.00;;;;;;;27.26;57.31;100360.81;84791;1327;22564;-70
2022/07/01 04:04:16;;;;;;;13.30;9.60;;;;;;;27.60;55.59;100358.81;84792;1326;22652;-70
2022/07/01 04:06:23;;;;;;;11.10;9.90;;;;;;;27.90;55.15;100358.04;84769;1326;25404;-70
2022/07/01 04:08:31;;;;;;;12.60;8.80;;;;;;;28.27;53.92;100362.29;84782;1327;22546;-70
2022/07/01 04:10:39;;;;;;;9.50;8.50;;;;;;;28.64;53.30;100364.21;84798;1326;25414;-70
2022/07/01 04:12:47;;;;;;;9.80;8.80;;;;;;;29.05;52.17;100364.55;84780;1327;22765;-70
2022/07/01 04:14:54;;;;;;;15.90;8.50;;;;;;;29.36;50.83;100359.09;84791;1327;25448;-70
2022/07/01 04:17:05;;;;;;;14.30;9.20;;;;;;;29.64;50.04;100362.29;84786;1327;22556;-70
2022/07/01 04:19:12;;;;;;;10.80;8.70;;;;;;;29.87;49.40;100360.41;84796;1327;23582;-70
2022/07/01 04:23:45;;;;;;;14.60;9.40;;;;;;;30.50;48.18;100352.40;84791;1325;24254;-70
2022/07/01 04:25:52;;;;;;;13.80;8.90;;;;;;;30.80;47.08;100349.00;84781;1328;22855;-70
2022/07/01 04:28:01;;;;;;;20.80;11.00;;;;;;;30.99;47.00;100351.49;84788;1327;22600;-71
2022/07/01 04:30:12;;;;;;;13.80;9.50;;;;;;;31.34;46.39;100351.21;84799;1325;22727;-71
2022/07/01 04:32:19;;;;;;;14.80;9.50;;;;;;;31.65;44.91;100345.10;84805;1327;24273;-71
2022/07/01 04:34:29;;;;;;;16.80;9.40;;;;;;;31.79;44.31;100342.08;84804;1329;25460;-70
2022/07/01 04:36:35;;;;;;;;;;;;;;;31.92;44.09;100336.60;84793;1328;22739;-70
2022/07/01 04:38:42;;;;;;;18.70;9.20;;;;;;;31.99;43.69;100340.59;84781;1327;22552;-70
2022/07/01 04:43:11;;;;;;;14.90;9.40;;;;;;;31.94;43.27;100340.48;84794;1325;24287;-70
2022/07/01 04:45:19;;;;;;;19.40;9.20;;;;;;;31.70;43.17;100350.69;84762;1327;22536;-70
2022/07/01 04:47:32;;;;;;;15.40;10.30;;;;;;;31.54;43.66;100346.15;84798;1322;22843;-70
2022/07/01 04:49:39;;;;;;;13.10;10.70;;;;;;;31.66;43.74;100341.55;84788;1327;24376;-70
2022/07/01 04:51:47;;;;;;;14.60;9.50;;;;;;;31.95;43.69;100336.16;84796;1327;22717;-70
2022/07/01 04:53:54;;;;;;;19.20;9.90;;;;;;;32.28;43.20;100333.61;84811;1326;22583;-70
2022/07/01 04:56:02;;;;;;;14.70;9.10;;;;;;;32.67;42.98;100329.83;84776;1329;22690;-70
2022/07/01 04:58:09;;;;;;;19.40;9.70;;;;;;;33.04;41.35;100332.51;84774;1327;23980;-70
2022/07/01 05:00:19;;;;;;;14.10;9.80;;;;;;;33.18;41.50;100328.48;84799;1329;23886;-70
2022/07/01 05:02:25;;;;;;;;;;;;;;;33.45;40.61;100327.39;84799;1323;24512;-70
2022/07/01 05:04:32;;;;;;;11.40;10.10;;;;;;;33.62;40.72;100329.39;84782;1327;22608;-70
2022/07/01 05:06:39;;;;;;;12.90;9.30;;;;;;;34.00;40.20;100329.20;84779;1326;22623;-70
2022/07/01 05:08:47;;;;;;;10.90;9.00;;;;;;;34.37;39.65;100326.58;84774;1327;24383;-70
2022/07/01 05:10:54;;;;;;;10.30;9.20;;;;;;;34.71;38.84;100324.73;84788;1328;24325;-70
2022/07/01 05:13:02;;;;;;;11.10;10.00;;;;;;;35.04;38.38;100328.29;84793;1327;24316;-70
2022/07/01 05:15:11;;;;;;;10.90;10.00;;;;;;;35.31;37.73;100333.91;84783;1327;22662;-70
2022/07/01 05:17:18;;;;;;;12.40;9.90;;;;;;;35.58;37.27;100332.95;84802;1327;22540;-70
2022/07/01 05:21:56;;;;;;;11.20;10.10;;;;;;;36.28;35.90;100326.89;84808;1326;22729;-71
2022/07/01 05:24:04;;;;;;;10.90;9.60;;;;;;;36.57;35.70;100326.85;84793;1327;22694;-71
2022/07/01 05:26:16;;;;;;;17.30;10.30;;;;;;;36.91;35.39;100326.73;84791;1326;22583;-71
2022/07/01 05:28:23;;;;;;;14.20;10.30;;;;;;;37.23;34.61;100325.23;84785;1330;22575;-71
2022/07/01 05:30:31;;;;;;;11.30;9.80;;;;;;;37.51;33.73;100321.48;84793;1327;22828;-71
2022/07/01 05:32:38;;;;;;;13.30;10.90;;;;;;;37.72;33.44;100321.25;84787;1327;23972;-71
2022/07/01 05:34:45;;;;;;;12.10;10.90;;;;;;;37.97;32.98;100324.14;84822;1327;22599;-71
2022/07/01 05:36:53;;;;;;;12.40;10.60;;;;;;;38.15;31.89;100318.63;84850;1328;22613;-71
2022/07/01 05:39:00;;;;;;;11.10;10.00;;;;;;;38.22;32.25;100317.02;84819;1323;22604;-71
2022/07/01 05:41:08;;;;;;;12.60;10.70;;;;;;;38.41;32.11;100315.70;84863;1318;22753;-71
2022/07/01 05:43:15;;;;;;;11.80;10.90;;;;;;;38.63;31.56;100313.66;84801;1327;25632;-71
2022/07/01 05:45:25;;;;;;;13.10;10.50;;;;;;;38.85;31.40;100313.83;84819;1327;25705;-71
2022/07/01 05:47:32;;;;;;;12.80;11.50;;;;;;;39.06;30.60;100317.64;84793;1327;22583;-71
2022/07/01 05:49:40;;;;;;;12.40;11.30;;;;;;;39.17;30.12;100315.27;84785;1327;22602;-71
2022/07/01 05:51:47;;;;;;;13.50;11.50;;;;;;;39.11;30.09;100314.93;84780;1327;24286;-71
2022/07/01 05:53:56;;;;;;;13.60;12.00;;;;;;;39.16;30.52;100316.41;84797;1321;23010;-71
2022/07/01 05:56:03;;;;;;;11.10;10.10;;;;;;;39.37;29.90;100324.39;84792;1327;22600;-71
2022/07/01 05:58:13;;;;;;;11.40;10.30;;;;;;;39.46;29.94;100318.77;84799;1327;22639;-71
2022/07/01 06:00:21;;;;;;;12.20;11.10;;;;;;;39.78;29.76;100320.10;84794;1327;24030;-71
2022/07/01 06:02:29;;;;;;;11.70;10.60;;;;;;;40.03;29.26;100321.01;84798;1325;22723;-71
2022/07/01 06:04:36;;;;;;;12.00;10.90;;;;;;;40.25;28.49;100319.83;84752;1327;25249;-71
2022/07/01 06:06:43;;;;;;;12.80;11.50;;;;;;;40.22;28.23;100320.67;84779;1328;25244;-71
2022/07/01 06:08:51;;;;;;;11.60;10.50;;;;;;;40.25;28.35;100320.96;84785;1326;25996;-70
2022/07/01 06:10:59;;;;;;;17.20;11.30;;;;;;;40.35;28.37;100320.77;84775;1327;22587;-70
2022/07/01 06:13:06;;;;;;;14.70;10.80;;;;;;;40.45;27.81;100314.15;84782;1327;22553;-70
2022/07/01 06:15:15;;;;;;;10.90;10.00;;;;;;;40.56;27.58;100317.20;84795;1321;22547;-71
2022/07/01 06:17:22;;;;;;;13.50;10.50;;;;;;;40.78;27.70;100313.05;84805;1327;22583;-71
2022/07/01 06:19:30;;;;;;;10.90;9.90;;;;;;;41.06;27.72;100313.11;84775;1327;23924;-71
2022/07/01 06:21:37;;;;;;;11.10;10.30;;;;;;;41.12;27.32;100314.42;84790;1323;22582;-71
2022/07/01 06:23:46;;;;;;;10.10;9.30;;;;;;;41.27;27.55;100312.46;84776;1330;22584;-71
2022/07/01 06:25:52;;;;;;;;;;;;;;;41.58;27.22;100313.42;84809;1321;24389;-71
2022/07/01 06:27:59;;;;;;;11.70;10.40;;;;;;;41.72;26.52;100313.56;84766;1327;24305;-71
2022/07/01 06:30:08;;;;;;;10.60;9.70;;;;;;;41.75;26.51;100309.96;84806;1328;25449;-71
2022/07/01 06:32:16;;;;;;;11.80;10.10;;;;;;;41.82;25.93;100311.84;84787;1327;22595;-71
2022/07/01 06:34:24;;;;;;;10.70;9.90;;;;;;;41.92;25.70;100308.38;84806;1327;22553;-71
2022/07/01 06:36:31;;;;;;;10.90;9.70;;;;;;;42.00;25.76;100307.59;84774;1326;22602;-71
2022/07/01 06:38:39;;;;;;;9.80;9.20;;;;;;;42.20;25.66;100308.63;84812;1329;22659;-71
2022/07/01 06:41:26;;;;;;;12.80;10.60;;;;;;;42.41;25.46;100306.35;84776;1322;24238;-71
2022/07/01 06:43:14;;;;;;;11.10;9.90;;;;;;;42.60;25.20;100310.14;84802;1323;22608;-71
2022/07/01 06:45:22;;;;;;;9.70;8.90;;;;;;;42.72;24.95;100315.04;84787;1329;25429;-71
2022/07/01 06:47:29;;;;;;;10.60;9.80;;;;;;;42.63;24.51;100308.40;84787;1326;23799;-71
2022/07/01 06:49:40;;;;;;;10.60;9.60;;;;;;;42.58;24.61;100309.98;84787;1330;25258;-71
2022/07/01 06:51:48;;;;;;;10.60;9.70;;;;;;;42.64;25.38;100308.69;84774;1323;22597;-71
2022/07/01 06:53:55;;;;;;;12.50;9.90;;;;;;;42.83;24.98;100311.02;84794;1326;25148;-71
2022/07/01 06:56:03;;;;;;;10.80;9.80;;;;;;;43.05;24.66;100310.13;84815;1324;22596;-71
2022/07/01 06:58:10;;;;;;;9.80;8.60;;;;;;;43.16;24.11;100310.09;84785;1327;22673;-71
2022/07/01 07:00:19;;;;;;;11.00;10.20;;;;;;;43.32;24.34;100313.00;84778;1326;24856;-71
2022/07/01 07:02:25;;;;;;;;;;;;;;;43.58;23.68;100313.92;84784;1327;25395;-71
2022/07/01 07:04:32;;;;;;;9.40;8.60;;;;;;;43.66;23.65;100311.31;84765;1326;22610;-71
2022/07/01 07:06:39;;;;;;;12.20;9.60;;;;;;;43.81;22.98;100309.31;84782;1327;25432;-71
2022/07/01 07:08:47;;;;;;;10.20;9.40;;;;;;;43.89;23.23;100306.64;84805;1326;22547;-71
2022/07/01 07:10:54;;;;;;;13.40;9.20;;;;;;;44.03;22.99;100303.55;84773;1322;22542;-71
2022/07/01 07:13:02;;;;;;;9.60;8.30;;;;;;;44.08;23.61;100305.09;84798;1327;22742;-72
2022/07/01 07:15:11;;;;;;;11.10;8.60;;;;;;;44.32;23.54;100308.03;84782;1327;22605;-71
2022/07/01 07:17:18;;;;;;;9.70;8.90;;;;;;;44.59;23.02;100305.30;84797;1327;25312;-71
2022/07/01 07:19:26;;;;;;;10.00;8.70;;;;;;;44.84;22.65;100303.27;84800;1325;22617;-72
2022/07/01 07:21:34;;;;;;;10.50;8.50;;;;;;;44.91;22.08;100305.52;84768;1327;22595;-71
2022/07/01 07:23:41;;;;;;;10.80;9.80;;;;;;;44.87;22.28;100305.84;84804;1327;22588;-71
2022/07/01 07:25:48;;;;;;;9.90;8.60;;;;;;;44.96;22.12;100306.80;84815;1325;22590;-71
2022/07/01 07:27:56;;;;;;;9.60;8.70;;;;;;;44.99;22.27;100299.91;84801;1327;25396;-71
2022/07/01 07:30:04;;;;;;;11.40;8.80;;;;;;;45.09;22.69;100298.61;84800;1326;24377;-72
2022/07/01 07:32:12;;;;;;;10.80;8.60;;;;;;;45.21;22.47;100295.46;84778;1329;24008;-71
2022/07/01 07:34:19;;;;;;;10.70;9.00;;;;;;;45.36;21.63;100295.11;84781;1327;22608;-71
2022/07/01 07:36:27;;;;;;;11.60;9.00;;;;;;;45.25;21.87;100291.61;84793;1327;22586;-71
2022/07/01 07:38:34;;;;;;;10.90;9.50;;;;;;;45.40;22.19;100288.69;84774;1328;22692;-71
2022/07/01 07:40:42;;;;;;;10.00;8.60;;;;;;;45.54;21.65;100289.64;84756;1327;25422;-71
2022/07/01 07:42:50;;;;;;;9.90;8.60;;;;;;;45.63;21.48;100295.80;84794;1326;22540;-72
2022/07/01 07:44:56;;;;;;;;;;;;;;;45.70;20.95;100296.98;84785;1328;22594;-72
2022/07/01 07:47:04;;;;;;;16.50;9.50;;;;;;;45.69;21.33;100296.49;84779;1326;23787;-72
2022/07/01 07:49:12;;;;;;;13.40;9.00;;;;;;;45.79;21.16;100294.86;84788;1328;25343;-71
2022/07/01 07:51:22;;;;;;;10.00;8.40;;;;;;;45.90;20.94;100291.91;84785;1329;24235;-71
2022/07/01 07:53:30;;;;;;;10.50;9.10;;;;;;;46.03;20.94;100293.52;84773;1327;22616;-71
2022/07/01 07:55:37;;;;;;;11.40;8.40;;;;;;;46.18;21.36;100286.16;84801;1327;25450;-71
2022/07/01 07:57:45;;;;;;;15.00;8.30;;;;;;;46.39;20.83;100285.86;84801;1322;22580;-71
2022/07/01 07:59:52;;;;;;;15.10;9.70;;;;;;;46.58;20.69;100284.45;84773;1326;22568;-71
2022/07/01 08:02:02;;;;;;;9.00;8.20;;;;;;;46.66;20.45;100282.29;84777;1330;22565;-71
2022/07/01 08:04:09;;;;;;;13.60;8.70;;;;;;;46.73;19.51;100280.00;84799;1327;24008;-71
2022/07/01 08:06:17;;;;;;;14.70;8.90;;;;;;;46.58;20.21;100285.50;84791;1327;22553;-71
2022/07/01 08:08:24;;;;;;;13.30;9.10;;;;;;;46.57;20.35;100285.13;84799;1326;23551;-72
2022/07/01 08:10:32;;;;;;;11.30;8.00;;;;;;;46.65;20.27;100284.67;84782;1327;22587;-72
2022/07/01 08:12:39;;;;;;;10.40;8.90;;;;;;;46.79;20.54;100285.67;84787;1321;24478;-71
2022/07/01 08:14:47;;;;;;;11.40;8.90;;;;;;;46.85;21.07;100286.55;84808;1328;22929;-71
2022/07/01 08:16:54;;;;;;;8.40;7.60;;;;;;;46.88;19.63;100287.29;84789;1329;25437;-71
2022/07/01 08:19:02;;;;;;;11.70;7.50;;;;;;;46.80;19.85;100290.35;84800;1322;22667;-69
2022/07/01 08:21:10;;;;;;;8.80;7.50;;;;;;;46.81;19.17;100290.12;84783;1327;22608;-70
2022/07/01 08:23:18;;;;;;;11.60;7.60;;;;;;;46.72;19.73;100292.86;84788;1325;22901;-70
2022/07/01 08:25:25;;;;;;;11.60;8.10;;;;;;;46.79;19.33;100297.46;84771;1329;22601;-74
2022/07/01 08:27:33;;;;;;;14.10;7.10;;;;;;;46.85;19.12;100298.14;84801;1327;25432;-71
2022/07/01 08:29:40;;;;;;;8.80;6.60;;;;;;;46.92;19.50;100295.55;84814;1327;22596;-71
2022/07/01 08:31:48;;;;;;;7.50;6.70;;;;;;;47.09;19.16;100299.04;84804;1326;25251;-71
2022/07/01 08:33:55;;;;;;;7.80;6.60;;;;;;;47.08;19.08;100298.95;84761;1327;22536;-71
2022/07/01 08:36:03;;;;;;;9.10;5.90;;;;;;;47.17;19.17;100298.46;84772;1327;23848;-71
2022/07/01 08:38:10;;;;;;;7.60;6.50;;;;;;;47.39;19.39;100294.66;84793;1327;22932;-71
2022/07/01 08:40:18;;;;;;;6.90;6.40;;;;;;;47.57;19.41;100296.36;84787;1329;22668;-71
2022/07/01 08:42:25;;;;;;;7.20;6.40;;;;;;;47.63;18.92;100292.86;84783;1327;24460;-71
2022/07/01 08:44:34;;;;;;;8.40;6.70;;;;;;;47.64;18.48;100293.26;84789;1326;22569;-71
2022/07/01 08:46:41;;;;;;;7.30;6.60;;;;;;;47.48;18.75;100299.09;84769;1327;22663;-71
2022/07/01 08:48:48;;;;;;;;;;;;;;;47.33;18.69;100292.55;84805;1328;22639;-72
2022/07/01 08:50:56;;;;;;;8.60;6.70;;;;;;;47.20;18.65;100292.08;84788;1328;22592;-72
2022/07/01 08:53:03;;;;;;;15.30;6.40;;;;;;;47.22;18.94;100294.11;84797;1328;22635;-72
2022/07/01 08:55:12;;;;;;;10.80;6.20;;;;;;;47.21;18.17;100292.61;84773;1329;22643;-72
2022/07/01 08:57:23;;;;;;;6.90;5.90;;;;;;;47.04;18.39;100287.22;84785;1329;22587;-72
2022/07/01 08:59:31;;;;;;;6.40;5.80;;;;;;;47.05;18.84;100281.70;84801;1328;22589;-72
2022/07/01 09:01:39;;;;;;;10.40;5.50;;;;;;;47.17;18.34;100284.11;84786;1329;22763;-72
2022/07/01 09:03:47;;;;;;;7.10;6.00;;;;;;;47.06;17.70;100288.23;84780;1328;22585;-72
2022/07/01 09:05:55;;;;;;;6.60;5.80;;;;;;;46.94;17.68;100278.08;84808;1328;22549;-71
2022/07/01 09:08:02;;;;;;;;;;;;;;;46.86;17.64;100283.10;84806;1327;22534;-71
2022/07/01 09:10:19;;;;;;;6.30;5.40;;;;;;;46.50;17.55;100273.14;84823;1327;25317;-71
2022/07/01 09:12:26;;;;;;;6.30;5.70;;;;;;;46.00;17.50;100273.02;84769;1327;22831;-71
2022/07/01 09:14:35;;;;;;;8.10;6.20;;;;;;;45.54;17.57;100274.48;84790;1329;22623;-71
2022/07/01 09:16:48;;;;;;;7.70;6.00;;;;;;;45.05;18.07;100271.95;84793;1327;22597;-71
2022/07/01 09:19:05;;;;;;;7.60;6.70;;;;;;;44.65;18.59;100266.34;84792;1329;23863;-71
2022/07/01 09:21:16;;;;;;;7.80;6.40;;;;;;;44.06;19.22;100276.20;84731;1330;22592;-71
2022/07/01 09:23:24;;;;;;;9.40;6.00;;;;;;;43.59;18.99;100272.46;84795;1326;22553;-71
2022/07/01 09:25:34;;;;;;;7.00;6.00;;;;;;;43.16;19.68;100269.49;84790;1325;22607;-71
2022/07/01 09:27:41;;;;;;;8.20;6.70;;;;;;;42.94;20.08;100261.48;84772;1329;23009;-71
2022/07/01 09:29:51;;;;;;;6.60;6.00;;;;;;;42.78;20.33;100263.73;84777;1327;22588;-71
2022/07/01 09:31:59;;;;;;;7.30;6.20;;;;;;;42.47;20.42;100264.54;84788;1328;24943;-71
2022/07/01 09:34:10;;;;;;;6.70;6.10;;;;;;;42.12;20.37;100265.33;84776;1327;25252;-71
2022/07/01 09:36:19;;;;;;;7.60;6.90;;;;;;;41.82;20.88;100263.13;84795;1329;22595;-70
2022/07/01 09:38:28;;;;;;;8.30;5.90;;;;;;;41.60;21.22;100258.27;84790;1329;23079;-70
2022/07/01 09:40:56;;;;;;;6.70;6.10;;;;;;;41.52;21.87;100257.36;84784;1329;22566;-70
2022/07/01 09:43:03;;;;;;;9.60;6.70;;;;;;;41.39;21.75;100247.53;84803;1329;24033;-70
2022/07/01 09:45:12;;;;;;;7.00;6.30;;;;;;;41.25;22.28;100247.36;84789;1327;22587;-71
2022/07/01 09:47:19;;;;;;;6.80;6.20;;;;;;;41.08;21.91;100253.83;84813;1329;23663;-71
2022/07/01 09:49:27;;;;;;;7.70;6.90;;;;;;;40.89;22.23;100250.20;84803;1330;23915;-71
2022/07/01 09:51:35;;;;;;;8.30;7.40;;;;;;;40.79;22.81;100251.03;84780;1327;22560;-71
2022/07/01 09:53:43;;;;;;;8.90;6.30;;;;;;;40.66;23.02;100254.60;84807;1328;22661;-70
2022/07/01 09:55:51;;;;;;;9.70;6.20;;;;;;;40.53;22.40;100256.82;84788;1329;22699;-70
2022/07/01 09:57:59;;;;;;;7.30;6.60;;;;;;;40.32;22.88;100260.42;84774;1328;22673;-70
2022/07/01 10:00:09;;;;;;;7.40;6.20;;;;;;;40.22;23.29;100259.08;84803;1329;22578;-70